KGSB/GSB METAR and TAF weather

Enter ICAO airport designator
Station Type Date Time Source
KGSB METAR 2019/02/16 03:56 UTC NOAA

KGSB 160356Z AUTO 23010KT 10SM FEW055 17/10 A2980 RMK AO2 SLP094 T01670103 $


Station Type Date Time Source
KGSB Decoded METAR 2019/02/16 03:56 UTC NOAA

Seymour-Johnson Air Force Base, NC, United States (KGSB) 35-20N 077-58W
Feb 15, 2019 - 10:56 PM EST / 2019.02.16 0356 UTC
Wind: from the SW (230 degrees) at 12 MPH (10 KT):0
Visibility: 10 mile(s):0
Sky conditions: mostly clear
Temperature: 62.1 F (16.7 C)
Dew Point: 50.5 F (10.3 C)
Relative Humidity: 65%
Pressure (altimeter): 29.8 in. Hg (1009 hPa)
ob: KGSB 160356Z AUTO 23010KT 10SM FEW055 17/10 A2980 RMK AO2 SLP094 T01670103
cycle: 4

Station Type Date Time Source
KGSB TAF 2019/02/15 21:06 UTC NOAA

TAF KGSB 152100Z 1521/1703 22010G15KT 9999 SCT045 BKN200 QNH2977INS
BECMG 1601/1602 23008KT 6000 -SHRA OVC020 QNH2976INS
BECMG 1613/1614 03012G18KT 4800 -SHRA OVC010 QNH2976INS
BECMG 1620/1621 05010KT 9999 NSW OVC025 QNH2976INS TX22/1521Z TN12/1612Z LAST NO
AMDS AFT 1522 NEXT 1821


Example: see airport list